sensor_id;sensor_type;location;lat;lon;timestamp;P1;durP1;ratioP1;P2;durP2;ratioP2
8254;SDS011;4167;48.162;11.542;2022-10-16T00:01:41;75.73;;;33.53;;
8254;SDS011;4167;48.162;11.542;2022-10-16T00:04:08;72.57;;;32.47;;
8254;SDS011;4167;48.162;11.542;2022-10-16T00:06:35;61.20;;;32.20;;
8254;SDS011;4167;48.162;11.542;2022-10-16T00:09:01;70.40;;;33.10;;
8254;SDS011;4167;48.162;11.542;2022-10-16T00:11:29;61.20;;;32.83;;
8254;SDS011;4167;48.162;11.542;2022-10-16T00:13:59;103.87;;;34.60;;
8254;SDS011;4167;48.162;11.542;2022-10-16T00:16:28;78.57;;;33.47;;
8254;SDS011;4167;48.162;11.542;2022-10-16T00:18:55;104.37;;;34.37;;
8254;SDS011;4167;48.162;11.542;2022-10-16T00:21:23;63.50;;;32.87;;
8254;SDS011;4167;48.162;11.542;2022-10-16T00:23:51;78.90;;;33.17;;
8254;SDS011;4167;48.162;11.542;2022-10-16T00:26:18;89.63;;;33.70;;
8254;SDS011;4167;48.162;11.542;2022-10-16T00:28:45;148.27;;;36.20;;
8254;SDS011;4167;48.162;11.542;2022-10-16T00:31:12;75.67;;;32.93;;
8254;SDS011;4167;48.162;11.542;2022-10-16T00:33:40;65.00;;;32.60;;
8254;SDS011;4167;48.162;11.542;2022-10-16T00:36:08;141.67;;;35.60;;
8254;SDS011;4167;48.162;11.542;2022-10-16T00:38:36;148.17;;;35.60;;
8254;SDS011;4167;48.162;11.542;2022-10-16T00:41:02;69.10;;;32.37;;
8254;SDS011;4167;48.162;11.542;2022-10-16T00:43:33;91.30;;;33.37;;
8254;SDS011;4167;48.162;11.542;2022-10-16T00:46:02;77.27;;;32.70;;
8254;SDS011;4167;48.162;11.542;2022-10-16T00:48:29;73.37;;;33.27;;
8254;SDS011;4167;48.162;11.542;2022-10-16T00:50:58;65.33;;;32.30;;
8254;SDS011;4167;48.162;11.542;2022-10-16T00:53:24;79.20;;;32.97;;
8254;SDS011;4167;48.162;11.542;2022-10-16T00:55:52;82.40;;;32.97;;
8254;SDS011;4167;48.162;11.542;2022-10-16T00:58:19;172.73;;;36.80;;
8254;SDS011;4167;48.162;11.542;2022-10-16T01:00:46;42.53;;;31.73;;
8254;SDS011;4167;48.162;11.542;2022-10-16T01:03:23;91.43;;;33.80;;
8254;SDS011;4167;48.162;11.542;2022-10-16T01:05:56;51.80;;;31.93;;
8254;SDS011;4167;48.162;11.542;2022-10-16T01:08:30;76.00;;;33.00;;
8254;SDS011;4167;48.162;11.542;2022-10-16T01:11:00;98.77;;;33.60;;
8254;SDS011;4167;48.162;11.542;2022-10-16T01:13:33;151.77;;;36.20;;
8254;SDS011;4167;48.162;11.542;2022-10-16T01:16:04;68.90;;;32.53;;
8254;SDS011;4167;48.162;11.542;2022-10-16T01:18:33;85.00;;;32.63;;
8254;SDS011;4167;48.162;11.542;2022-10-16T01:21:05;145.07;;;35.40;;
8254;SDS011;4167;48.162;11.542;2022-10-16T01:23:36;103.37;;;34.40;;
8254;SDS011;4167;48.162;11.542;2022-10-16T01:26:13;94.63;;;33.43;;
8254;SDS011;4167;48.162;11.542;2022-10-16T01:28:46;178.43;;;36.93;;
8254;SDS011;4167;48.162;11.542;2022-10-16T01:31:17;88.07;;;33.30;;
8254;SDS011;4167;48.162;11.542;2022-10-16T01:33:46;138.77;;;35.67;;
8254;SDS011;4167;48.162;11.542;2022-10-16T01:36:14;133.33;;;35.40;;
8254;SDS011;4167;48.162;11.542;2022-10-16T01:38:43;110.00;;;34.53;;
8254;SDS011;4167;48.162;11.542;2022-10-16T01:41:11;92.63;;;34.10;;
8254;SDS011;4167;48.162;11.542;2022-10-16T01:43:42;75.93;;;33.13;;
8254;SDS011;4167;48.162;11.542;2022-10-16T01:46:13;60.47;;;33.03;;
8254;SDS011;4167;48.162;11.542;2022-10-16T01:48:42;143.47;;;35.47;;
8254;SDS011;4167;48.162;11.542;2022-10-16T01:51:09;87.10;;;33.53;;
8254;SDS011;4167;48.162;11.542;2022-10-16T01:53:38;97.87;;;33.63;;
8254;SDS011;4167;48.162;11.542;2022-10-16T01:56:06;55.63;;;31.87;;
8254;SDS011;4167;48.162;11.542;2022-10-16T01:58:35;129.27;;;35.27;;
8254;SDS011;4167;48.162;11.542;2022-10-16T02:01:05;80.63;;;33.17;;
8254;SDS011;4167;48.162;11.542;2022-10-16T02:03:34;108.23;;;34.67;;
8254;SDS011;4167;48.162;11.542;2022-10-16T02:06:01;60.47;;;32.43;;
8254;SDS011;4167;48.162;11.542;2022-10-16T02:08:28;109.90;;;34.43;;
8254;SDS011;4167;48.162;11.542;2022-10-16T02:10:56;66.73;;;32.70;;
8254;SDS011;4167;48.162;11.542;2022-10-16T02:13:25;208.67;;;38.30;;
8254;SDS011;4167;48.162;11.542;2022-10-16T02:15:54;61.70;;;32.60;;
8254;SDS011;4167;48.162;11.542;2022-10-16T02:18:22;88.43;;;33.77;;
8254;SDS011;4167;48.162;11.542;2022-10-16T02:20:53;63.13;;;32.53;;
8254;SDS011;4167;48.162;11.542;2022-10-16T02:23:24;110.00;;;34.37;;
8254;SDS011;4167;48.162;11.542;2022-10-16T02:25:56;72.13;;;32.30;;
8254;SDS011;4167;48.162;11.542;2022-10-16T02:28:26;128.03;;;35.13;;
8254;SDS011;4167;48.162;11.542;2022-10-16T02:30:55;82.93;;;33.03;;
8254;SDS011;4167;48.162;11.542;2022-10-16T02:33:25;103.10;;;34.20;;
8254;SDS011;4167;48.162;11.542;2022-10-16T02:35:52;75.57;;;32.93;;
8254;SDS011;4167;48.162;11.542;2022-10-16T02:38:19;106.63;;;34.37;;
8254;SDS011;4167;48.162;11.542;2022-10-16T02:40:46;74.77;;;32.77;;
8254;SDS011;4167;48.162;11.542;2022-10-16T02:43:13;108.27;;;33.87;;
8254;SDS011;4167;48.162;11.542;2022-10-16T02:45:39;64.10;;;32.60;;
8254;SDS011;4167;48.162;11.542;2022-10-16T02:48:06;80.23;;;32.63;;
8254;SDS011;4167;48.162;11.542;2022-10-16T02:50:34;77.40;;;33.43;;
8254;SDS011;4167;48.162;11.542;2022-10-16T02:53:01;80.27;;;33.10;;
8254;SDS011;4167;48.162;11.542;2022-10-16T02:55:27;120.30;;;34.73;;
8254;SDS011;4167;48.162;11.542;2022-10-16T02:57:54;67.50;;;32.30;;
8254;SDS011;4167;48.162;11.542;2022-10-16T03:00:21;104.97;;;35.03;;
8254;SDS011;4167;48.162;11.542;2022-10-16T03:02:47;40.60;;;32.00;;
8254;SDS011;4167;48.162;11.542;2022-10-16T03:05:14;92.27;;;34.27;;
8254;SDS011;4167;48.162;11.542;2022-10-16T03:07:42;66.63;;;32.77;;
8254;SDS011;4167;48.162;11.542;2022-10-16T03:10:08;53.67;;;32.63;;
8254;SDS011;4167;48.162;11.542;2022-10-16T03:12:35;69.37;;;32.87;;
8254;SDS011;4167;48.162;11.542;2022-10-16T03:15:02;64.27;;;32.07;;
8254;SDS011;4167;48.162;11.542;2022-10-16T03:17:29;67.03;;;32.60;;
8254;SDS011;4167;48.162;11.542;2022-10-16T03:19:56;40.60;;;31.17;;
8254;SDS011;4167;48.162;11.542;2022-10-16T03:22:22;85.20;;;32.83;;
8254;SDS011;4167;48.162;11.542;2022-10-16T03:24:50;55.63;;;31.57;;
8254;SDS011;4167;48.162;11.542;2022-10-16T03:27:17;74.33;;;32.73;;
8254;SDS011;4167;48.162;11.542;2022-10-16T03:29:43;57.33;;;31.80;;
8254;SDS011;4167;48.162;11.542;2022-10-16T03:32:10;86.47;;;33.07;;
8254;SDS011;4167;48.162;11.542;2022-10-16T03:34:36;54.70;;;32.30;;
8254;SDS011;4167;48.162;11.542;2022-10-16T03:37:03;51.90;;;31.87;;
8254;SDS011;4167;48.162;11.542;2022-10-16T03:39:29;71.80;;;32.53;;
8254;SDS011;4167;48.162;11.542;2022-10-16T03:41:57;71.23;;;32.97;;
8254;SDS011;4167;48.162;11.542;2022-10-16T03:44:24;80.90;;;33.27;;
8254;SDS011;4167;48.162;11.542;2022-10-16T03:46:50;54.90;;;32.20;;
8254;SDS011;4167;48.162;11.542;2022-10-16T03:49:17;83.10;;;33.13;;
8254;SDS011;4167;48.162;11.542;2022-10-16T03:51:44;60.37;;;32.07;;
8254;SDS011;4167;48.162;11.542;2022-10-16T03:54:10;78.90;;;33.20;;
8254;SDS011;4167;48.162;11.542;2022-10-16T03:56:37;65.90;;;32.60;;
8254;SDS011;4167;48.162;11.542;2022-10-16T03:59:05;38.03;;;31.27;;
8254;SDS011;4167;48.162;11.542;2022-10-16T04:01:32;96.80;;;33.63;;
8254;SDS011;4167;48.162;11.542;2022-10-16T04:03:58;91.77;;;33.60;;
8254;SDS011;4167;48.162;11.542;2022-10-16T04:06:25;75.07;;;33.37;;
8254;SDS011;4167;48.162;11.542;2022-10-16T04:08:51;124.57;;;34.87;;
8254;SDS011;4167;48.162;11.542;2022-10-16T04:11:18;93.90;;;34.23;;
8254;SDS011;4167;48.162;11.542;2022-10-16T04:13:44;64.10;;;32.80;;
8254;SDS011;4167;48.162;11.542;2022-10-16T04:16:12;85.80;;;33.40;;
8254;SDS011;4167;48.162;11.542;2022-10-16T04:18:39;102.23;;;34.50;;
8254;SDS011;4167;48.162;11.542;2022-10-16T04:21:06;70.27;;;33.67;;
8254;SDS011;4167;48.162;11.542;2022-10-16T04:23:33;114.97;;;34.90;;
8254;SDS011;4167;48.162;11.542;2022-10-16T04:26:00;60.43;;;32.47;;
8254;SDS011;4167;48.162;11.542;2022-10-16T04:28:27;126.77;;;35.53;;
8254;SDS011;4167;48.162;11.542;2022-10-16T04:30:53;104.17;;;34.60;;
8254;SDS011;4167;48.162;11.542;2022-10-16T04:33:21;100.27;;;34.33;;
8254;SDS011;4167;48.162;11.542;2022-10-16T04:35:48;62.47;;;32.37;;
8254;SDS011;4167;48.162;11.542;2022-10-16T04:38:15;82.60;;;33.57;;
8254;SDS011;4167;48.162;11.542;2022-10-16T04:40:41;81.87;;;33.03;;
8254;SDS011;4167;48.162;11.542;2022-10-16T04:43:08;83.53;;;33.73;;
8254;SDS011;4167;48.162;11.542;2022-10-16T04:45:35;63.63;;;32.57;;
8254;SDS011;4167;48.162;11.542;2022-10-16T04:48:02;109.70;;;34.53;;
8254;SDS011;4167;48.162;11.542;2022-10-16T04:50:30;71.60;;;33.27;;
8254;SDS011;4167;48.162;11.542;2022-10-16T04:52:56;104.53;;;34.70;;
8254;SDS011;4167;48.162;11.542;2022-10-16T04:55:23;120.60;;;35.17;;
8254;SDS011;4167;48.162;11.542;2022-10-16T04:57:50;133.10;;;35.60;;
8254;SDS011;4167;48.162;11.542;2022-10-16T05:00:16;180.40;;;38.53;;
8254;SDS011;4167;48.162;11.542;2022-10-16T05:02:43;75.63;;;33.43;;
8254;SDS011;4167;48.162;11.542;2022-10-16T05:05:10;78.60;;;34.20;;
8254;SDS011;4167;48.162;11.542;2022-10-16T05:07:38;80.43;;;33.50;;
8254;SDS011;4167;48.162;11.542;2022-10-16T05:10:04;49.70;;;32.20;;
8254;SDS011;4167;48.162;11.542;2022-10-16T05:12:31;73.73;;;32.80;;
8254;SDS011;4167;48.162;11.542;2022-10-16T05:14:58;53.90;;;32.47;;
8254;SDS011;4167;48.162;11.542;2022-10-16T05:17:24;116.37;;;34.97;;
8254;SDS011;4167;48.162;11.542;2022-10-16T05:19:51;172.13;;;37.10;;
8254;SDS011;4167;48.162;11.542;2022-10-16T05:22:18;160.10;;;36.57;;
8254;SDS011;4167;48.162;11.542;2022-10-16T05:24:46;73.57;;;33.27;;
8254;SDS011;4167;48.162;11.542;2022-10-16T05:27:12;101.87;;;34.13;;
8254;SDS011;4167;48.162;11.542;2022-10-16T05:29:44;112.47;;;34.87;;
8254;SDS011;4167;48.162;11.542;2022-10-16T05:32:10;102.87;;;34.17;;
8254;SDS011;4167;48.162;11.542;2022-10-16T05:34:37;52.77;;;32.23;;
8254;SDS011;4167;48.162;11.542;2022-10-16T05:37:04;83.97;;;33.67;;
8254;SDS011;4167;48.162;11.542;2022-10-16T05:39:31;71.87;;;33.00;;
8254;SDS011;4167;48.162;11.542;2022-10-16T05:41:59;229.57;;;39.60;;
8254;SDS011;4167;48.162;11.542;2022-10-16T05:44:25;73.47;;;33.30;;
8254;SDS011;4167;48.162;11.542;2022-10-16T05:46:52;106.90;;;34.73;;
8254;SDS011;4167;48.162;11.542;2022-10-16T05:49:18;130.83;;;35.63;;
8254;SDS011;4167;48.162;11.542;2022-10-16T05:51:45;64.40;;;32.90;;
8254;SDS011;4167;48.162;11.542;2022-10-16T05:54:11;152.13;;;36.63;;
8254;SDS011;4167;48.162;11.542;2022-10-16T05:56:38;57.67;;;32.87;;
8254;SDS011;4167;48.162;11.542;2022-10-16T05:59:06;91.73;;;34.47;;
8254;SDS011;4167;48.162;11.542;2022-10-16T06:01:33;67.87;;;33.83;;
8254;SDS011;4167;48.162;11.542;2022-10-16T06:04:00;86.47;;;33.93;;
8254;SDS011;4167;48.162;11.542;2022-10-16T06:06:27;56.33;;;33.37;;
8254;SDS011;4167;48.162;11.542;2022-10-16T06:08:55;63.97;;;33.23;;
8254;SDS011;4167;48.162;11.542;2022-10-16T06:11:22;72.70;;;33.53;;
8254;SDS011;4167;48.162;11.542;2022-10-16T06:13:51;82.90;;;33.60;;
8254;SDS011;4167;48.162;11.542;2022-10-16T06:16:20;79.17;;;33.93;;
8254;SDS011;4167;48.162;11.542;2022-10-16T06:18:46;131.73;;;35.77;;
8254;SDS011;4167;48.162;11.542;2022-10-16T06:21:14;82.17;;;34.17;;
8254;SDS011;4167;48.162;11.542;2022-10-16T06:23:43;64.10;;;32.80;;
8254;SDS011;4167;48.162;11.542;2022-10-16T06:26:11;78.40;;;33.73;;
8254;SDS011;4167;48.162;11.542;2022-10-16T06:28:38;144.90;;;36.23;;
8254;SDS011;4167;48.162;11.542;2022-10-16T06:31:05;102.67;;;34.87;;
8254;SDS011;4167;48.162;11.542;2022-10-16T06:33:34;48.53;;;32.60;;
8254;SDS011;4167;48.162;11.542;2022-10-16T06:36:02;74.57;;;33.50;;
8254;SDS011;4167;48.162;11.542;2022-10-16T06:38:28;68.33;;;33.20;;
8254;SDS011;4167;48.162;11.542;2022-10-16T06:40:55;84.43;;;34.17;;
8254;SDS011;4167;48.162;11.542;2022-10-16T06:43:22;98.53;;;34.90;;
8254;SDS011;4167;48.162;11.542;2022-10-16T06:45:52;72.97;;;33.87;;
8254;SDS011;4167;48.162;11.542;2022-10-16T06:48:18;68.70;;;34.10;;
8254;SDS011;4167;48.162;11.542;2022-10-16T06:50:55;72.60;;;34.13;;
8254;SDS011;4167;48.162;11.542;2022-10-16T06:53:23;75.60;;;34.57;;
8254;SDS011;4167;48.162;11.542;2022-10-16T06:55:49;60.13;;;33.40;;
8254;SDS011;4167;48.162;11.542;2022-10-16T06:58:16;85.37;;;34.27;;
8254;SDS011;4167;48.162;11.542;2022-10-16T07:00:43;88.53;;;34.90;;
8254;SDS011;4167;48.162;11.542;2022-10-16T07:03:10;62.07;;;33.63;;
8254;SDS011;4167;48.162;11.542;2022-10-16T07:05:37;68.70;;;33.40;;
8254;SDS011;4167;48.162;11.542;2022-10-16T07:08:05;59.90;;;33.07;;
8254;SDS011;4167;48.162;11.542;2022-10-16T07:10:32;144.87;;;37.83;;
8254;SDS011;4167;48.162;11.542;2022-10-16T07:12:58;76.40;;;33.97;;
8254;SDS011;4167;48.162;11.542;2022-10-16T07:15:25;69.87;;;34.20;;
8254;SDS011;4167;48.162;11.542;2022-10-16T07:17:52;68.63;;;33.73;;
8254;SDS011;4167;48.162;11.542;2022-10-16T07:20:19;66.57;;;35.03;;
8254;SDS011;4167;48.162;11.542;2022-10-16T07:22:46;90.60;;;34.87;;
8254;SDS011;4167;48.162;11.542;2022-10-16T07:25:14;73.40;;;35.10;;
8254;SDS011;4167;48.162;11.542;2022-10-16T07:27:40;40.37;;;33.23;;
8254;SDS011;4167;48.162;11.542;2022-10-16T07:30:07;75.63;;;36.07;;
8254;SDS011;4167;48.162;11.542;2022-10-16T07:32:34;58.77;;;34.30;;
8254;SDS011;4167;48.162;11.542;2022-10-16T07:35:01;63.40;;;34.10;;
8254;SDS011;4167;48.162;11.542;2022-10-16T07:37:28;58.97;;;34.70;;
8254;SDS011;4167;48.162;11.542;2022-10-16T07:39:54;68.07;;;34.87;;
8254;SDS011;4167;48.162;11.542;2022-10-16T07:42:22;53.10;;;34.37;;
8254;SDS011;4167;48.162;11.542;2022-10-16T07:44:49;52.97;;;34.67;;
8254;SDS011;4167;48.162;11.542;2022-10-16T07:47:15;42.27;;;33.87;;
8254;SDS011;4167;48.162;11.542;2022-10-16T07:49:42;70.40;;;34.97;;
8254;SDS011;4167;48.162;11.542;2022-10-16T07:52:08;91.47;;;36.27;;
8254;SDS011;4167;48.162;11.542;2022-10-16T07:54:35;75.47;;;35.27;;
8254;SDS011;4167;48.162;11.542;2022-10-16T07:57:01;66.90;;;34.77;;
8254;SDS011;4167;48.162;11.542;2022-10-16T07:59:29;86.70;;;35.47;;
8254;SDS011;4167;48.162;11.542;2022-10-16T08:01:56;66.63;;;34.27;;
8254;SDS011;4167;48.162;11.542;2022-10-16T08:04:22;78.80;;;35.03;;
8254;SDS011;4167;48.162;11.542;2022-10-16T08:06:49;52.17;;;33.47;;
8254;SDS011;4167;48.162;11.542;2022-10-16T08:09:15;70.43;;;34.83;;
8254;SDS011;4167;48.162;11.542;2022-10-16T08:11:42;99.80;;;35.60;;
8254;SDS011;4167;48.162;11.542;2022-10-16T08:14:08;64.60;;;34.50;;
8254;SDS011;4167;48.162;11.542;2022-10-16T08:16:36;60.00;;;34.27;;
8254;SDS011;4167;48.162;11.542;2022-10-16T08:19:03;62.67;;;34.33;;
8254;SDS011;4167;48.162;11.542;2022-10-16T08:21:29;51.73;;;33.77;;
8254;SDS011;4167;48.162;11.542;2022-10-16T08:23:56;66.00;;;34.87;;
8254;SDS011;4167;48.162;11.542;2022-10-16T08:26:22;86.00;;;35.10;;
8254;SDS011;4167;48.162;11.542;2022-10-16T08:28:49;128.23;;;36.63;;
8254;SDS011;4167;48.162;11.542;2022-10-16T08:31:16;88.93;;;35.73;;
8254;SDS011;4167;48.162;11.542;2022-10-16T08:33:44;57.90;;;34.27;;
8254;SDS011;4167;48.162;11.542;2022-10-16T08:36:12;90.03;;;35.27;;
8254;SDS011;4167;48.162;11.542;2022-10-16T08:38:39;71.53;;;34.70;;
8254;SDS011;4167;48.162;11.542;2022-10-16T08:41:15;68.03;;;34.17;;
8254;SDS011;4167;48.162;11.542;2022-10-16T08:44:01;96.03;;;35.67;;
8254;SDS011;4167;48.162;11.542;2022-10-16T08:46:37;43.70;;;33.50;;
8254;SDS011;4167;48.162;11.542;2022-10-16T08:49:11;53.50;;;34.50;;
8254;SDS011;4167;48.162;11.542;2022-10-16T08:51:39;71.53;;;35.03;;
8254;SDS011;4167;48.162;11.542;2022-10-16T08:54:06;41.07;;;33.50;;
8254;SDS011;4167;48.162;11.542;2022-10-16T08:56:35;58.03;;;34.93;;
8254;SDS011;4167;48.162;11.542;2022-10-16T08:59:02;72.10;;;35.23;;
8254;SDS011;4167;48.162;11.542;2022-10-16T09:01:33;62.73;;;34.73;;
8254;SDS011;4167;48.162;11.542;2022-10-16T09:04:07;66.33;;;34.53;;
8254;SDS011;4167;48.162;11.542;2022-10-16T09:06:50;93.90;;;36.50;;
8254;SDS011;4167;48.162;11.542;2022-10-16T09:12:11;102.37;;;36.57;;
8254;SDS011;4167;48.162;11.542;2022-10-16T09:14:45;77.50;;;36.17;;
8254;SDS011;4167;48.162;11.542;2022-10-16T09:17:22;114.87;;;36.93;;
8254;SDS011;4167;48.162;11.542;2022-10-16T09:19:56;91.43;;;36.80;;
8254;SDS011;4167;48.162;11.542;2022-10-16T09:22:30;121.93;;;37.17;;
8254;SDS011;4167;48.162;11.542;2022-10-16T09:24:58;89.10;;;35.90;;
8254;SDS011;4167;48.162;11.542;2022-10-16T09:27:26;152.97;;;38.27;;
8254;SDS011;4167;48.162;11.542;2022-10-16T09:29:53;87.07;;;35.43;;
8254;SDS011;4167;48.162;11.542;2022-10-16T09:32:20;86.27;;;35.93;;
8254;SDS011;4167;48.162;11.542;2022-10-16T09:34:49;130.00;;;37.83;;
8254;SDS011;4167;48.162;11.542;2022-10-16T09:37:18;74.80;;;35.40;;
8254;SDS011;4167;48.162;11.542;2022-10-16T09:39:46;98.23;;;36.27;;
8254;SDS011;4167;48.162;11.542;2022-10-16T09:42:15;109.00;;;36.63;;
8254;SDS011;4167;48.162;11.542;2022-10-16T09:44:46;75.37;;;35.20;;
8254;SDS011;4167;48.162;11.542;2022-10-16T09:47:14;107.73;;;36.87;;
8254;SDS011;4167;48.162;11.542;2022-10-16T09:49:50;112.30;;;37.60;;
8254;SDS011;4167;48.162;11.542;2022-10-16T09:52:19;61.27;;;35.10;;
8254;SDS011;4167;48.162;11.542;2022-10-16T09:54:49;88.53;;;36.03;;
8254;SDS011;4167;48.162;11.542;2022-10-16T09:57:17;92.07;;;36.43;;
8254;SDS011;4167;48.162;11.542;2022-10-16T09:59:47;90.27;;;36.63;;
8254;SDS011;4167;48.162;11.542;2022-10-16T10:02:14;80.77;;;35.83;;
8254;SDS011;4167;48.162;11.542;2022-10-16T10:04:44;94.57;;;36.50;;
8254;SDS011;4167;48.162;11.542;2022-10-16T10:07:16;153.80;;;39.33;;
8254;SDS011;4167;48.162;11.542;2022-10-16T10:09:46;104.30;;;37.30;;
8254;SDS011;4167;48.162;11.542;2022-10-16T10:12:17;89.20;;;36.80;;
8254;SDS011;4167;48.162;11.542;2022-10-16T10:14:46;109.13;;;37.77;;
8254;SDS011;4167;48.162;11.542;2022-10-16T10:17:15;93.20;;;36.47;;
8254;SDS011;4167;48.162;11.542;2022-10-16T10:19:46;123.13;;;37.97;;
8254;SDS011;4167;48.162;11.542;2022-10-16T10:22:21;97.77;;;37.03;;
8254;SDS011;4167;48.162;11.542;2022-10-16T10:28:05;75.37;;;35.70;;
8254;SDS011;4167;48.162;11.542;2022-10-16T10:30:46;60.57;;;35.87;;
8254;SDS011;4167;48.162;11.542;2022-10-16T10:33:20;124.17;;;38.53;;
8254;SDS011;4167;48.162;11.542;2022-10-16T10:35:54;104.53;;;37.03;;
8254;SDS011;4167;48.162;11.542;2022-10-16T10:38:30;110.37;;;37.53;;
8254;SDS011;4167;48.162;11.542;2022-10-16T10:43:48;85.90;;;36.30;;
8254;SDS011;4167;48.162;11.542;2022-10-16T10:46:23;145.60;;;38.87;;
8254;SDS011;4167;48.162;11.542;2022-10-16T10:48:58;161.67;;;39.93;;
8254;SDS011;4167;48.162;11.542;2022-10-16T10:51:35;80.53;;;36.50;;
8254;SDS011;4167;48.162;11.542;2022-10-16T10:54:13;77.83;;;36.60;;
8254;SDS011;4167;48.162;11.542;2022-10-16T10:56:45;77.67;;;36.00;;
8254;SDS011;4167;48.162;11.542;2022-10-16T10:59:21;98.70;;;37.07;;
8254;SDS011;4167;48.162;11.542;2022-10-16T11:02:12;83.35;;;36.75;;
8254;SDS011;4167;48.162;11.542;2022-10-16T11:04:45;116.53;;;37.60;;
8254;SDS011;4167;48.162;11.542;2022-10-16T11:07:22;102.33;;;37.00;;
8254;SDS011;4167;48.162;11.542;2022-10-16T11:09:54;64.73;;;35.63;;
8254;SDS011;4167;48.162;11.542;2022-10-16T11:12:24;107.28;;;37.83;;
8254;SDS011;4167;48.162;11.542;2022-10-16T11:14:54;96.60;;;36.93;;
8254;SDS011;4167;48.162;11.542;2022-10-16T11:17:25;155.23;;;39.63;;
8254;SDS011;4167;48.162;11.542;2022-10-16T11:19:56;175.83;;;40.70;;
8254;SDS011;4167;48.162;11.542;2022-10-16T11:22:26;134.90;;;38.93;;
8254;SDS011;4167;48.162;11.542;2022-10-16T11:24:58;103.73;;;37.27;;
8254;SDS011;4167;48.162;11.542;2022-10-16T11:27:30;167.90;;;40.17;;
8254;SDS011;4167;48.162;11.542;2022-10-16T11:30:02;152.80;;;40.53;;
8254;SDS011;4167;48.162;11.542;2022-10-16T11:32:33;143.70;;;39.53;;
8254;SDS011;4167;48.162;11.542;2022-10-16T11:35:06;98.77;;;37.33;;
8254;SDS011;4167;48.162;11.542;2022-10-16T11:37:38;157.33;;;39.60;;
8254;SDS011;4167;48.162;11.542;2022-10-16T11:40:15;104.78;;;38.33;;
8254;SDS011;4167;48.162;11.542;2022-10-16T11:42:46;72.97;;;36.23;;
8254;SDS011;4167;48.162;11.542;2022-10-16T11:45:18;138.90;;;40.13;;
8254;SDS011;4167;48.162;11.542;2022-10-16T11:47:51;149.37;;;39.43;;
8254;SDS011;4167;48.162;11.542;2022-10-16T11:50:23;150.23;;;39.97;;
8254;SDS011;4167;48.162;11.542;2022-10-16T11:52:53;85.77;;;37.00;;
8254;SDS011;4167;48.162;11.542;2022-10-16T11:55:26;93.60;;;37.17;;
8254;SDS011;4167;48.162;11.542;2022-10-16T11:57:57;195.43;;;41.13;;
8254;SDS011;4167;48.162;11.542;2022-10-16T12:00:28;136.25;;;38.80;;
8254;SDS011;4167;48.162;11.542;2022-10-16T12:02:58;66.80;;;36.10;;
8254;SDS011;4167;48.162;11.542;2022-10-16T12:05:33;98.97;;;37.33;;
8254;SDS011;4167;48.162;11.542;2022-10-16T12:08:06;81.50;;;36.70;;
8254;SDS011;4167;48.162;11.542;2022-10-16T12:10:37;129.57;;;39.15;;
8254;SDS011;4167;48.162;11.542;2022-10-16T12:13:05;109.60;;;37.83;;
8254;SDS011;4167;48.162;11.542;2022-10-16T12:16:04;88.32;;;37.05;;
8254;SDS011;4167;48.162;11.542;2022-10-16T12:18:32;114.07;;;37.60;;
8254;SDS011;4167;48.162;11.542;2022-10-16T12:20:59;136.17;;;38.53;;
8254;SDS011;4167;48.162;11.542;2022-10-16T12:23:30;151.33;;;39.47;;
8254;SDS011;4167;48.162;11.542;2022-10-16T12:25:59;71.27;;;36.50;;
8254;SDS011;4167;48.162;11.542;2022-10-16T12:28:27;167.35;;;40.45;;
8254;SDS011;4167;48.162;11.542;2022-10-16T12:30:55;95.15;;;37.47;;
8254;SDS011;4167;48.162;11.542;2022-10-16T12:33:24;125.07;;;38.40;;
8254;SDS011;4167;48.162;11.542;2022-10-16T12:35:52;79.47;;;36.03;;
8254;SDS011;4167;48.162;11.542;2022-10-16T12:38:19;136.63;;;38.60;;
8254;SDS011;4167;48.162;11.542;2022-10-16T12:40:47;91.43;;;36.97;;
8254;SDS011;4167;48.162;11.542;2022-10-16T12:43:36;141.38;;;38.88;;
8254;SDS011;4167;48.162;11.542;2022-10-16T12:46:06;141.55;;;39.50;;
8254;SDS011;4167;48.162;11.542;2022-10-16T12:48:48;111.22;;;37.70;;
8254;SDS011;4167;48.162;11.542;2022-10-16T12:51:23;108.88;;;37.80;;
8254;SDS011;4167;48.162;11.542;2022-10-16T12:54:00;93.75;;;36.95;;
8254;SDS011;4167;48.162;11.542;2022-10-16T12:56:31;120.05;;;37.85;;
8254;SDS011;4167;48.162;11.542;2022-10-16T12:59:08;66.10;;;36.10;;
8254;SDS011;4167;48.162;11.542;2022-10-16T13:01:41;77.13;;;36.17;;
8254;SDS011;4167;48.162;11.542;2022-10-16T13:04:18;130.13;;;38.93;;
8254;SDS011;4167;48.162;11.542;2022-10-16T13:07:20;121.13;;;37.95;;
8254;SDS011;4167;48.162;11.542;2022-10-16T13:10:00;114.17;;;37.57;;
8254;SDS011;4167;48.162;11.542;2022-10-16T13:15:35;89.30;;;36.67;;
8254;SDS011;4167;48.162;11.542;2022-10-16T13:18:11;99.03;;;37.22;;
8254;SDS011;4167;48.162;11.542;2022-10-16T13:20:44;88.17;;;36.93;;
8254;SDS011;4167;48.162;11.542;2022-10-16T13:23:21;131.80;;;38.77;;
8254;SDS011;4167;48.162;11.542;2022-10-16T13:25:55;82.28;;;36.42;;
8254;SDS011;4167;48.162;11.542;2022-10-16T13:28:27;187.23;;;40.67;;
8254;SDS011;4167;48.162;11.542;2022-10-16T13:30:58;105.97;;;37.33;;
8254;SDS011;4167;48.162;11.542;2022-10-16T13:33:27;161.05;;;39.50;;
8254;SDS011;4167;48.162;11.542;2022-10-16T13:35:57;85.05;;;36.60;;
8254;SDS011;4167;48.162;11.542;2022-10-16T13:38:25;89.65;;;37.05;;
8254;SDS011;4167;48.162;11.542;2022-10-16T13:40:53;84.25;;;36.45;;
8254;SDS011;4167;48.162;11.542;2022-10-16T13:43:22;142.98;;;38.90;;
8254;SDS011;4167;48.162;11.542;2022-10-16T13:48:23;188.03;;;41.03;;
8254;SDS011;4167;48.162;11.542;2022-10-16T13:51:04;94.75;;;36.95;;
8254;SDS011;4167;48.162;11.542;2022-10-16T13:53:32;101.90;;;37.53;;
8254;SDS011;4167;48.162;11.542;2022-10-16T13:55:59;149.77;;;39.45;;
8254;SDS011;4167;48.162;11.542;2022-10-16T13:58:26;178.35;;;40.47;;
8254;SDS011;4167;48.162;11.542;2022-10-16T14:00:53;151.50;;;39.42;;
8254;SDS011;4167;48.162;11.542;2022-10-16T14:03:23;181.00;;;40.30;;
8254;SDS011;4167;48.162;11.542;2022-10-16T14:05:52;135.20;;;39.33;;
8254;SDS011;4167;48.162;11.542;2022-10-16T14:08:20;138.32;;;38.88;;
8254;SDS011;4167;48.162;11.542;2022-10-16T14:10:48;154.85;;;40.15;;
8254;SDS011;4167;48.162;11.542;2022-10-16T14:13:17;156.23;;;39.67;;
8254;SDS011;4167;48.162;11.542;2022-10-16T14:15:46;125.70;;;38.40;;
8254;SDS011;4167;48.162;11.542;2022-10-16T14:18:17;165.80;;;39.85;;
8254;SDS011;4167;48.162;11.542;2022-10-16T14:20:45;169.80;;;40.33;;
8254;SDS011;4167;48.162;11.542;2022-10-16T14:23:21;193.43;;;41.30;;
8254;SDS011;4167;48.162;11.542;2022-10-16T14:25:51;151.40;;;39.07;;
8254;SDS011;4167;48.162;11.542;2022-10-16T14:28:18;179.73;;;40.13;;
8254;SDS011;4167;48.162;11.542;2022-10-16T14:30:50;136.95;;;39.17;;
8254;SDS011;4167;48.162;11.542;2022-10-16T14:33:21;139.03;;;39.13;;
8254;SDS011;4167;48.162;11.542;2022-10-16T14:35:59;109.67;;;37.40;;
8254;SDS011;4167;48.162;11.542;2022-10-16T14:38:27;129.85;;;38.83;;
8254;SDS011;4167;48.162;11.542;2022-10-16T14:40:54;103.90;;;37.63;;
8254;SDS011;4167;48.162;11.542;2022-10-16T14:43:25;189.00;;;41.10;;
8254;SDS011;4167;48.162;11.542;2022-10-16T14:45:56;118.70;;;38.27;;
8254;SDS011;4167;48.162;11.542;2022-10-16T14:48:24;116.38;;;37.90;;
8254;SDS011;4167;48.162;11.542;2022-10-16T14:50:51;112.07;;;37.47;;
8254;SDS011;4167;48.162;11.542;2022-10-16T14:53:18;191.47;;;40.90;;
8254;SDS011;4167;48.162;11.542;2022-10-16T14:55:45;118.53;;;37.97;;